PWSweather.com
Personal Weather Stations
Station Observations
JRARGWX75
Villages Of Bridgestone, Spring, TX 77379

Villages Of BridgestoneSpring, TX 77379

Lat: 30.053743, Lon: -95.494539

Elevation: 139

Station Type: Davis Vantage Pro 2 Plus +FARS

https://www.txweather.org

Latest ConditionsUpdated 12:27:03 PM CST Tuesday, Nov 12, 2019
Currently Today's Max Today's Min Today's Average
Temperature 43.2°F6.2°C 43.3°F6.3°C 34.2°F1.2°C 36.2°F2.3°C
Dew Point 24.8°F-4.0°C 34.7°F1.5°C 23.4°F-4.8°C 28.4°F-2.0°C
Winds 10.1 mph NNW16.3 kmh NNW 17.0 mph -27.4 kmh - - 10.2 mph 16.4 kmh
Wind Gusts 13.9 mph22.4 kmh 23.3 mph37.5 kmh - -
Humidity 48% 89% 47% 74%
Pressure 30.46 in1031.5 mb 30.52 in1033.5 mb 30.32 in1026.8 mb -
Precipitation - 0.01 in0.3 mm - -
Hour Temp Dew Point Humidity Winds Wind Gusts Pressure Precip Precip Rate Daily Precip Total
12:27 PM 43.2°F6.2°C 24.8°F-4.0°C 48% 10.1 mph NNW16.3 kmh NNW 13.9 mph22.4 kmh 30.46 in1031.5 mb - 0.00 in0.0 mm 0.01 in0.3 mm
12:22 PM 43.2°F6.2°C 24.8°F-4.0°C 48% 6.3 mph 10.1 kmh 4.3 mph6.9 kmh 30.46 in1031.5 mb - 0.00 in0.0 mm 0.01 in0.3 mm
12:17 PM 43.3°F6.3°C 25.5°F-3.6°C 49% 9.6 mph NW15.4 kmh NW 11.6 mph18.7 kmh 30.46 in1031.5 mb - 0.00 in0.0 mm 0.01 in0.3 mm
12:12 PM 42.6°F5.9°C 23.7°F-4.6°C 47% 11.0 mph 17.7 kmh 9.6 mph15.4 kmh 30.46 in1031.5 mb - 0.00 in0.0 mm 0.01 in0.3 mm
12:07 PM 42.3°F5.7°C 23.9°F-4.5°C 48% 10.3 mph 16.6 kmh 5.4 mph8.7 kmh 30.46 in1031.5 mb - 0.00 in0.0 mm 0.01 in0.3 mm
12:02 PM 41.9°F5.5°C 23.7°F-4.6°C 48% 10.5 mph N16.9 kmh N 6.3 mph10.1 kmh 30.47 in1031.8 mb - 0.00 in0.0 mm 0.01 in0.3 mm
11:57 AM 41.5°F5.3°C 24.8°F-4.0°C 51% 7.8 mph 12.6 kmh 9.6 mph15.4 kmh 30.47 in1031.8 mb - 0.00 in0.0 mm 0.01 in0.3 mm
11:52 AM 41.0°F5.0°C 24.3°F-4.3°C 51% 10.5 mph NNE16.9 kmh NNE 11.6 mph18.7 kmh 30.47 in1031.8 mb - 0.00 in0.0 mm 0.01 in0.3 mm
11:47 AM 40.6°F4.8°C 24.4°F-4.2°C 52% 9.2 mph NE14.8 kmh NE 12.8 mph20.6 kmh 30.48 in1032.2 mb - 0.00 in0.0 mm 0.01 in0.3 mm
11:42 AM 40.5°F4.7°C 23.7°F-4.6°C 51% 8.1 mph NW13.0 kmh NW 11.6 mph18.7 kmh 30.48 in1032.2 mb - 0.00 in0.0 mm 0.01 in0.3 mm
11:37 AM 40.5°F4.7°C 23.7°F-4.6°C 51% 8.3 mph N13.4 kmh N 9.6 mph15.4 kmh 30.48 in1032.2 mb - 0.00 in0.0 mm 0.01 in0.3 mm
11:32 AM 40.5°F4.7°C 24.6°F-4.1°C 53% 8.5 mph 13.7 kmh 7.4 mph11.9 kmh 30.48 in1032.2 mb - 0.00 in0.0 mm 0.01 in0.3 mm
11:27 AM 39.6°F4.2°C 23.9°F-4.5°C 53% 8.3 mph N13.4 kmh N 14.8 mph23.8 kmh 30.48 in1032.2 mb - 0.00 in0.0 mm 0.01 in0.3 mm
11:22 AM 39.6°F4.2°C 23.9°F-4.5°C 53% 8.3 mph NNW13.4 kmh NNW 13.9 mph22.4 kmh 30.48 in1032.2 mb - 0.00 in0.0 mm 0.01 in0.3 mm
11:17 AM 39.0°F3.9°C 23.4°F-4.8°C 53% 11.2 mph NNW18.0 kmh NNW 13.9 mph22.4 kmh 30.49 in1032.5 mb - 0.00 in0.0 mm 0.01 in0.3 mm
11:12 AM 38.7°F3.7°C 23.9°F-4.5°C 55% 9.4 mph 15.1 kmh 10.5 mph16.9 kmh 30.49 in1032.5 mb - 0.00 in0.0 mm 0.01 in0.3 mm
11:07 AM 38.7°F3.7°C 23.9°F-4.5°C 55% 9.2 mph NNW14.8 kmh NNW 11.6 mph18.7 kmh 30.49 in1032.5 mb - 0.00 in0.0 mm 0.01 in0.3 mm
11:02 AM 38.5°F3.6°C 25.3°F-3.7°C 59% 6.9 mph NNW11.1 kmh NNW 6.3 mph10.1 kmh 30.50 in1032.8 mb - 0.00 in0.0 mm 0.01 in0.3 mm
10:57 AM 37.8°F3.2°C 24.3°F-4.3°C 58% 8.3 mph N13.4 kmh N 8.5 mph13.7 kmh 30.50 in1032.8 mb - 0.00 in0.0 mm 0.01 in0.3 mm
10:52 AM 37.8°F3.2°C 24.8°F-4.0°C 59% 8.5 mph N13.7 kmh N 12.8 mph20.6 kmh 30.50 in1032.8 mb - 0.00 in0.0 mm 0.01 in0.3 mm
10:47 AM 37.8°F3.2°C 23.5°F-4.7°C 56% 11.2 mph NNW18.0 kmh NNW 11.6 mph18.7 kmh 30.50 in1032.8 mb - 0.00 in0.0 mm 0.01 in0.3 mm
10:42 AM 38.5°F3.6°C 24.6°F-4.1°C 57% 8.7 mph NNW14.0 kmh NNW 6.3 mph10.1 kmh 30.49 in1032.5 mb - 0.00 in0.0 mm 0.01 in0.3 mm
10:37 AM 39.4°F4.1°C 25.3°F-3.7°C 57% 7.8 mph 12.6 kmh 9.6 mph15.4 kmh 30.49 in1032.5 mb - 0.00 in0.0 mm 0.01 in0.3 mm
10:32 AM 39.0°F3.9°C 25.2°F-3.8°C 57% 7.4 mph 11.9 kmh 10.5 mph16.9 kmh 30.50 in1032.8 mb - 0.00 in0.0 mm 0.01 in0.3 mm
10:27 AM 38.7°F3.7°C 25.5°F-3.6°C 59% 9.2 mph NNW14.8 kmh NNW 7.4 mph11.9 kmh 30.50 in1032.8 mb - 0.00 in0.0 mm 0.01 in0.3 mm
10:22 AM 37.9°F3.3°C 25.0°F-3.9°C 59% 7.6 mph 12.2 kmh 6.3 mph10.1 kmh 30.50 in1032.8 mb - 0.00 in0.0 mm 0.01 in0.3 mm
10:17 AM 37.6°F3.1°C 24.6°F-4.1°C 59% 10.5 mph N16.9 kmh N 12.8 mph20.6 kmh 30.51 in1033.2 mb - 0.00 in0.0 mm 0.01 in0.3 mm
10:12 AM 37.8°F3.2°C 24.3°F-4.3°C 58% 12.1 mph NNW19.5 kmh NNW 9.6 mph15.4 kmh 30.51 in1033.2 mb - 0.00 in0.0 mm 0.01 in0.3 mm
10:07 AM 38.7°F3.7°C 25.2°F-3.8°C 58% 9.2 mph N14.8 kmh N 12.8 mph20.6 kmh 30.51 in1033.2 mb - 0.00 in0.0 mm 0.01 in0.3 mm
10:02 AM 38.7°F3.7°C 26.1°F-3.3°C 60% 8.9 mph N14.3 kmh N 14.8 mph23.8 kmh 30.51 in1033.2 mb - 0.00 in0.0 mm 0.01 in0.3 mm
09:57 AM 37.4°F3.0°C 25.2°F-3.8°C 61% 9.4 mph N15.1 kmh N 8.5 mph13.7 kmh 30.52 in1033.5 mb - 0.00 in0.0 mm 0.01 in0.3 mm
09:52 AM 37.2°F2.9°C 25.0°F-3.9°C 61% 9.8 mph 15.8 kmh 9.6 mph15.4 kmh 30.52 in1033.5 mb - 0.00 in0.0 mm 0.01 in0.3 mm
09:47 AM 37.0°F2.8°C 24.8°F-4.0°C 61% 9.2 mph 14.8 kmh 8.5 mph13.7 kmh 30.52 in1033.5 mb - 0.00 in0.0 mm 0.01 in0.3 mm
09:42 AM 36.7°F2.6°C 24.4°F-4.2°C 61% 10.1 mph 16.3 kmh 15.9 mph25.6 kmh 30.52 in1033.5 mb - 0.00 in0.0 mm 0.01 in0.3 mm
09:37 AM 36.0°F2.2°C 24.6°F-4.1°C 63% 12.5 mph 20.1 kmh 14.8 mph23.8 kmh 30.52 in1033.5 mb - 0.00 in0.0 mm 0.01 in0.3 mm
09:32 AM 35.4°F1.9°C 24.4°F-4.2°C 64% 13.2 mph 21.2 kmh 12.8 mph20.6 kmh 30.51 in1033.2 mb - 0.00 in0.0 mm 0.01 in0.3 mm
09:27 AM 35.2°F1.8°C 24.6°F-4.1°C 65% 9.8 mph 15.8 kmh 7.4 mph11.9 kmh 30.51 in1033.2 mb - 0.00 in0.0 mm 0.01 in0.3 mm
09:22 AM 35.2°F1.8°C 24.6°F-4.1°C 65% 13.0 mph N20.9 kmh N 8.5 mph13.7 kmh 30.51 in1033.2 mb - 0.00 in0.0 mm 0.01 in0.3 mm
09:17 AM 35.4°F1.9°C 25.2°F-3.8°C 66% 10.3 mph NNW16.6 kmh NNW 7.4 mph11.9 kmh 30.50 in1032.8 mb - 0.00 in0.0 mm 0.01 in0.3 mm
09:12 AM 35.6°F2.0°C 25.3°F-3.7°C 66% 10.7 mph N17.2 kmh N 7.4 mph11.9 kmh 30.50 in1032.8 mb - 0.00 in0.0 mm 0.01 in0.3 mm
09:07 AM 36.0°F2.2°C 25.7°F-3.5°C 66% 9.4 mph NNW15.1 kmh NNW 13.9 mph22.4 kmh 30.50 in1032.8 mb - 0.00 in0.0 mm 0.01 in0.3 mm
09:02 AM 36.1°F2.3°C 25.9°F-3.4°C 66% 13.0 mph NW20.9 kmh NW 9.6 mph15.4 kmh 30.50 in1032.8 mb - 0.00 in0.0 mm 0.01 in0.3 mm
08:57 AM 36.3°F2.4°C 26.4°F-3.1°C 67% 8.5 mph 13.7 kmh 7.4 mph11.9 kmh 30.50 in1032.8 mb - 0.00 in0.0 mm 0.01 in0.3 mm
08:52 AM 35.8°F2.1°C 25.9°F-3.4°C 67% 10.1 mph 16.3 kmh 10.5 mph16.9 kmh 30.50 in1032.8 mb - 0.00 in0.0 mm 0.01 in0.3 mm
08:47 AM 35.4°F1.9°C 26.2°F-3.2°C 69% 10.1 mph 16.3 kmh 9.6 mph15.4 kmh 30.49 in1032.5 mb - 0.00 in0.0 mm 0.01 in0.3 mm
08:42 AM 34.9°F1.6°C 25.7°F-3.5°C 69% 10.3 mph N16.6 kmh N 9.6 mph15.4 kmh 30.49 in1032.5 mb - 0.00 in0.0 mm 0.01 in0.3 mm
08:37 AM 34.5°F1.4°C 26.1°F-3.3°C 71% 12.3 mph NNW19.8 kmh NNW 9.6 mph15.4 kmh 30.49 in1032.5 mb - 0.00 in0.0 mm 0.01 in0.3 mm
08:32 AM 34.5°F1.4°C 26.4°F-3.1°C 72% 10.3 mph N16.6 kmh N 11.6 mph18.7 kmh 30.49 in1032.5 mb - 0.00 in0.0 mm 0.01 in0.3 mm
08:27 AM 34.3°F1.3°C 25.9°F-3.4°C 71% 9.2 mph N14.8 kmh N 6.3 mph10.1 kmh 30.49 in1032.5 mb - 0.00 in0.0 mm 0.01 in0.3 mm
08:22 AM 34.3°F1.3°C 26.2°F-3.2°C 72% 9.6 mph NNW15.4 kmh NNW 9.6 mph15.4 kmh 30.48 in1032.2 mb - 0.00 in0.0 mm 0.01 in0.3 mm
08:17 AM 34.3°F1.3°C 26.2°F-3.2°C 72% 7.6 mph 12.2 kmh 6.3 mph10.1 kmh 30.49 in1032.5 mb - 0.00 in0.0 mm 0.01 in0.3 mm
08:12 AM 34.3°F1.3°C 25.9°F-3.4°C 71% 11.4 mph 18.3 kmh 7.4 mph11.9 kmh 30.49 in1032.5 mb - 0.00 in0.0 mm 0.01 in0.3 mm
08:07 AM 34.3°F1.3°C 26.2°F-3.2°C 72% 13.4 mph N21.6 kmh N 17.0 mph27.4 kmh 30.49 in1032.5 mb - 0.00 in0.0 mm 0.01 in0.3 mm
08:02 AM 34.2°F1.2°C 26.4°F-3.1°C 73% 9.8 mph 15.8 kmh 17.0 mph27.4 kmh 30.49 in1032.5 mb - 0.00 in0.0 mm 0.01 in0.3 mm
07:57 AM 34.2°F1.2°C 26.4°F-3.1°C 73% 8.9 mph N14.3 kmh N 8.5 mph13.7 kmh 30.48 in1032.2 mb - 0.00 in0.0 mm 0.01 in0.3 mm
07:52 AM 34.3°F1.3°C 26.6°F-3.0°C 73% 8.9 mph NNW14.3 kmh NNW 7.4 mph11.9 kmh 30.48 in1032.2 mb - 0.00 in0.0 mm 0.01 in0.3 mm
07:47 AM 34.5°F1.4°C 27.1°F-2.7°C 74% 10.1 mph N16.3 kmh N 11.6 mph18.7 kmh 30.47 in1031.8 mb - 0.00 in0.0 mm 0.01 in0.3 mm
07:42 AM 34.3°F1.3°C 27.0°F-2.8°C 74% 12.3 mph N19.8 kmh N 9.6 mph15.4 kmh 30.47 in1031.8 mb - 0.00 in0.0 mm 0.01 in0.3 mm
07:37 AM 34.3°F1.3°C 27.0°F-2.8°C 74% 7.6 mph 12.2 kmh 6.3 mph10.1 kmh 30.47 in1031.8 mb - 0.00 in0.0 mm 0.01 in0.3 mm
07:32 AM 34.2°F1.2°C 26.8°F-2.9°C 74% 9.6 mph N15.4 kmh N 10.5 mph16.9 kmh 30.46 in1031.5 mb - 0.00 in0.0 mm 0.01 in0.3 mm
07:27 AM 34.2°F1.2°C 26.8°F-2.9°C 74% 13.4 mph 21.6 kmh 13.9 mph22.4 kmh 30.46 in1031.5 mb - 0.00 in0.0 mm 0.01 in0.3 mm
07:22 AM 34.2°F1.2°C 27.1°F-2.7°C 75% 7.2 mph NNW11.6 kmh NNW 5.4 mph8.7 kmh 30.46 in1031.5 mb - 0.00 in0.0 mm 0.01 in0.3 mm
07:17 AM 34.2°F1.2°C 27.1°F-2.7°C 75% 11.0 mph N17.7 kmh N 11.6 mph18.7 kmh 30.46 in1031.5 mb - 0.00 in0.0 mm 0.01 in0.3 mm
07:12 AM 34.3°F1.3°C 27.5°F-2.5°C 76% 8.9 mph 14.3 kmh 10.5 mph16.9 kmh 30.47 in1031.8 mb - 0.00 in0.0 mm 0.01 in0.3 mm
07:07 AM 34.2°F1.2°C 27.3°F-2.6°C 76% 8.1 mph 13.0 kmh 7.4 mph11.9 kmh 30.47 in1031.8 mb - 0.00 in0.0 mm 0.01 in0.3 mm
07:02 AM 34.2°F1.2°C 27.3°F-2.6°C 76% 11.2 mph NE18.0 kmh NE 10.5 mph16.9 kmh 30.47 in1031.8 mb - 0.00 in0.0 mm 0.01 in0.3 mm
06:57 AM 34.3°F1.3°C 27.5°F-2.5°C 76% 8.3 mph NNW13.4 kmh NNW 9.6 mph15.4 kmh 30.46 in1031.5 mb - 0.00 in0.0 mm 0.01 in0.3 mm
06:52 AM 34.3°F1.3°C 27.9°F-2.3°C 77% 9.2 mph NW14.8 kmh NW 14.8 mph23.8 kmh 30.45 in1031.2 mb - 0.00 in0.0 mm 0.01 in0.3 mm
06:47 AM 34.3°F1.3°C 27.5°F-2.5°C 76% 10.3 mph 16.6 kmh 8.5 mph13.7 kmh 30.46 in1031.5 mb - 0.00 in0.0 mm 0.01 in0.3 mm
06:42 AM 34.3°F1.3°C 27.5°F-2.5°C 76% 10.1 mph 16.3 kmh 8.5 mph13.7 kmh 30.45 in1031.2 mb - 0.00 in0.0 mm 0.01 in0.3 mm
06:37 AM 34.3°F1.3°C 27.5°F-2.5°C 76% 14.5 mph N23.3 kmh N 15.9 mph25.6 kmh 30.45 in1031.2 mb - 0.00 in0.0 mm 0.01 in0.3 mm
06:32 AM 34.5°F1.4°C 28.0°F-2.2°C 77% 11.9 mph 19.2 kmh 9.6 mph15.4 kmh 30.45 in1031.2 mb - 0.00 in0.0 mm 0.01 in0.3 mm
06:27 AM 34.5°F1.4°C 28.4°F-2.0°C 78% 10.7 mph 17.2 kmh 9.6 mph15.4 kmh 30.45 in1031.2 mb - 0.00 in0.0 mm 0.01 in0.3 mm
06:22 AM 34.5°F1.4°C 28.4°F-2.0°C 78% 8.1 mph 13.0 kmh 8.5 mph13.7 kmh 30.45 in1031.2 mb - 0.00 in0.0 mm 0.01 in0.3 mm
06:17 AM 34.5°F1.4°C 28.4°F-2.0°C 78% 8.7 mph N14.0 kmh N 8.5 mph13.7 kmh 30.45 in1031.2 mb - 0.00 in0.0 mm 0.01 in0.3 mm
06:12 AM 34.5°F1.4°C 28.4°F-2.0°C 78% 9.8 mph N15.8 kmh N 5.4 mph8.7 kmh 30.45 in1031.2 mb - 0.00 in0.0 mm 0.01 in0.3 mm
06:07 AM 34.5°F1.4°C 28.4°F-2.0°C 78% 8.9 mph NNW14.3 kmh NNW 12.8 mph20.6 kmh 30.44 in1030.8 mb - 0.00 in0.0 mm 0.01 in0.3 mm
06:02 AM 34.7°F1.5°C 28.9°F-1.7°C 79% 9.4 mph NNE15.1 kmh NNE 8.5 mph13.7 kmh 30.44 in1030.8 mb - 0.00 in0.0 mm 0.01 in0.3 mm
05:57 AM 34.7°F1.5°C 28.9°F-1.7°C 79% 10.1 mph 16.3 kmh 7.4 mph11.9 kmh 30.44 in1030.8 mb - 0.00 in0.0 mm 0.01 in0.3 mm
05:52 AM 34.9°F1.6°C 29.1°F-1.6°C 79% 7.4 mph NNW11.9 kmh NNW 11.6 mph18.7 kmh 30.44 in1030.8 mb - 0.00 in0.0 mm 0.01 in0.3 mm
05:47 AM 34.9°F1.6°C 29.1°F-1.6°C 79% 8.7 mph N14.0 kmh N 7.4 mph11.9 kmh 30.44 in1030.8 mb - 0.00 in0.0 mm 0.01 in0.3 mm
05:42 AM 34.9°F1.6°C 29.1°F-1.6°C 79% 11.2 mph N18.0 kmh N 12.8 mph20.6 kmh 30.44 in1030.8 mb - 0.00 in0.0 mm 0.01 in0.3 mm
05:37 AM 34.9°F1.6°C 29.1°F-1.6°C 79% 11.2 mph N18.0 kmh N 6.3 mph10.1 kmh 30.44 in1030.8 mb - 0.00 in0.0 mm 0.01 in0.3 mm
05:32 AM 34.9°F1.6°C 29.1°F-1.6°C 79% 10.3 mph 16.6 kmh 9.6 mph15.4 kmh 30.44 in1030.8 mb - 0.00 in0.0 mm 0.01 in0.3 mm
05:27 AM 34.9°F1.6°C 29.3°F-1.5°C 80% 8.3 mph 13.4 kmh 10.5 mph16.9 kmh 30.45 in1031.2 mb - 0.00 in0.0 mm 0.01 in0.3 mm
05:22 AM 34.9°F1.6°C 29.1°F-1.6°C 79% 10.5 mph 16.9 kmh 14.8 mph23.8 kmh 30.44 in1030.8 mb - 0.00 in0.0 mm 0.01 in0.3 mm
05:17 AM 35.1°F1.7°C 29.5°F-1.4°C 80% 11.6 mph N18.7 kmh N 14.8 mph23.8 kmh 30.43 in1030.5 mb - 0.00 in0.0 mm 0.01 in0.3 mm
05:12 AM 34.9°F1.6°C 29.3°F-1.5°C 80% 7.8 mph 12.6 kmh 8.5 mph13.7 kmh 30.43 in1030.5 mb - 0.00 in0.0 mm 0.01 in0.3 mm
05:07 AM 34.9°F1.6°C 29.3°F-1.5°C 80% 9.2 mph NNW14.8 kmh NNW 11.6 mph18.7 kmh 30.42 in1030.1 mb - 0.00 in0.0 mm 0.01 in0.3 mm
05:02 AM 34.9°F1.6°C 29.3°F-1.5°C 80% 13.0 mph 20.9 kmh 8.5 mph13.7 kmh 30.42 in1030.1 mb - 0.00 in0.0 mm 0.01 in0.3 mm
04:57 AM 35.1°F1.7°C 29.5°F-1.4°C 80% 8.5 mph NNW13.7 kmh NNW 13.9 mph22.4 kmh 30.42 in1030.1 mb - 0.00 in0.0 mm 0.01 in0.3 mm
04:52 AM 35.1°F1.7°C 29.8°F-1.2°C 81% 11.0 mph N17.7 kmh N 7.4 mph11.9 kmh 30.43 in1030.5 mb - 0.00 in0.0 mm 0.01 in0.3 mm
04:47 AM 35.1°F1.7°C 29.8°F-1.2°C 81% 6.7 mph 10.8 kmh 7.4 mph11.9 kmh 30.41 in1029.8 mb - 0.00 in0.0 mm 0.01 in0.3 mm
04:42 AM 35.1°F1.7°C 29.8°F-1.2°C 81% 12.1 mph NNW19.5 kmh NNW 10.5 mph16.9 kmh 30.41 in1029.8 mb - 0.00 in0.0 mm 0.01 in0.3 mm
04:37 AM 35.1°F1.7°C 29.8°F-1.2°C 81% 9.4 mph NW15.1 kmh NW 5.4 mph8.7 kmh 30.41 in1029.8 mb - 0.00 in0.0 mm 0.01 in0.3 mm
04:32 AM 35.1°F1.7°C 30.2°F-1.0°C 82% 11.4 mph NE18.3 kmh NE 8.5 mph13.7 kmh 30.41 in1029.8 mb - 0.00 in0.0 mm 0.01 in0.3 mm
04:27 AM 35.1°F1.7°C 30.2°F-1.0°C 82% 8.5 mph NNW13.7 kmh NNW 7.4 mph11.9 kmh 30.40 in1029.5 mb - 0.00 in0.0 mm 0.01 in0.3 mm
04:22 AM 35.1°F1.7°C 30.2°F-1.0°C 82% 11.0 mph NNW17.7 kmh NNW 4.3 mph6.9 kmh 30.40 in1029.5 mb - 0.00 in0.0 mm 0.01 in0.3 mm
04:17 AM 35.1°F1.7°C 30.4°F-0.9°C 83% 8.5 mph 13.7 kmh 8.5 mph13.7 kmh 30.40 in1029.5 mb - 0.00 in0.0 mm 0.01 in0.3 mm
04:12 AM 35.1°F1.7°C 30.4°F-0.9°C 83% 11.4 mph 18.3 kmh 12.8 mph20.6 kmh 30.40 in1029.5 mb - 0.00 in0.0 mm 0.01 in0.3 mm
04:07 AM 35.1°F1.7°C 30.7°F-0.7°C 84% 11.6 mph 18.7 kmh 7.4 mph11.9 kmh 30.40 in1029.5 mb - 0.00 in0.0 mm 0.01 in0.3 mm
04:02 AM 35.1°F1.7°C 30.7°F-0.7°C 84% 9.6 mph NNE15.4 kmh NNE 14.8 mph23.8 kmh 30.40 in1029.5 mb - 0.00 in0.0 mm 0.01 in0.3 mm
03:57 AM 35.1°F1.7°C 30.9°F-0.6°C 85% 10.1 mph N16.3 kmh N 13.9 mph22.4 kmh 30.40 in1029.5 mb - 0.00 in0.0 mm 0.01 in0.3 mm
03:52 AM 35.1°F1.7°C 30.9°F-0.6°C 85% 9.4 mph 15.1 kmh 10.5 mph16.9 kmh 30.39 in1029.1 mb - 0.00 in0.0 mm 0.01 in0.3 mm
03:47 AM 35.1°F1.7°C 30.9°F-0.6°C 85% 9.2 mph 14.8 kmh 7.4 mph11.9 kmh 30.38 in1028.8 mb - 0.00 in0.0 mm 0.01 in0.3 mm
03:42 AM 35.1°F1.7°C 30.9°F-0.6°C 85% 8.3 mph 13.4 kmh 14.8 mph23.8 kmh 30.38 in1028.8 mb - 0.00 in0.0 mm 0.01 in0.3 mm
03:37 AM 35.2°F1.8°C 31.1°F-0.5°C 85% 9.8 mph N15.8 kmh N 11.6 mph18.7 kmh 30.38 in1028.8 mb - 0.00 in0.0 mm 0.01 in0.3 mm
03:32 AM 35.2°F1.8°C 31.5°F-0.3°C 86% 8.3 mph 13.4 kmh 11.6 mph18.7 kmh 30.38 in1028.8 mb - 0.00 in0.0 mm 0.01 in0.3 mm
03:27 AM 35.2°F1.8°C 31.5°F-0.3°C 86% 8.3 mph NNW13.4 kmh NNW 12.8 mph20.6 kmh 30.39 in1029.1 mb - 0.00 in0.0 mm 0.01 in0.3 mm
03:22 AM 35.1°F1.7°C 31.3°F-0.4°C 86% 8.9 mph N14.3 kmh N 10.5 mph16.9 kmh 30.38 in1028.8 mb - 0.00 in0.0 mm 0.01 in0.3 mm
03:17 AM 35.1°F1.7°C 31.3°F-0.4°C 86% 10.5 mph N16.9 kmh N 10.5 mph16.9 kmh 30.38 in1028.8 mb - 0.00 in0.0 mm 0.01 in0.3 mm
03:12 AM 35.1°F1.7°C 31.3°F-0.4°C 86% 11.9 mph 19.2 kmh 12.8 mph20.6 kmh 30.38 in1028.8 mb - 0.00 in0.0 mm 0.01 in0.3 mm
03:07 AM 35.2°F1.8°C 31.8°F-0.1°C 87% 8.5 mph NNW13.7 kmh NNW 6.3 mph10.1 kmh 30.38 in1028.8 mb - 0.00 in0.0 mm 0.01 in0.3 mm
03:02 AM 35.1°F1.7°C 31.6°F-0.2°C 87% 8.1 mph N13.0 kmh N 8.5 mph13.7 kmh 30.37 in1028.4 mb - 0.00 in0.0 mm 0.01 in0.3 mm
02:57 AM 35.1°F1.7°C 31.6°F-0.2°C 87% 9.2 mph WNW14.8 kmh WNW 6.3 mph10.1 kmh 30.38 in1028.8 mb - 0.00 in0.0 mm 0.01 in0.3 mm
02:52 AM 35.2°F1.8°C 31.8°F-0.1°C 87% 8.1 mph NNW13.0 kmh NNW 9.6 mph15.4 kmh 30.37 in1028.4 mb - 0.04 in1.0 mm 0.01 in0.3 mm
02:47 AM 35.1°F1.7°C 31.6°F-0.2°C 87% 8.5 mph N13.7 kmh N 6.3 mph10.1 kmh 30.37 in1028.4 mb - 0.04 in1.0 mm 0.01 in0.3 mm
02:42 AM 35.1°F1.7°C 31.6°F-0.2°C 87% 11.6 mph N18.7 kmh N 12.8 mph20.6 kmh 30.37 in1028.4 mb - 0.04 in1.0 mm 0.01 in0.3 mm
02:37 AM 35.2°F1.8°C 31.8°F-0.1°C 87% 13.6 mph 21.9 kmh 13.9 mph22.4 kmh 30.37 in1028.4 mb - 0.04 in1.0 mm 0.04 in1.0 mm
02:32 AM 35.1°F1.7°C 31.6°F-0.2°C 87% 11.6 mph N18.7 kmh N 11.6 mph18.7 kmh 30.37 in1028.4 mb - 0.00 in0.0 mm 0.00 in0.0 mm
02:27 AM 35.2°F1.8°C 31.8°F-0.1°C 87% 10.1 mph NNE16.3 kmh NNE 10.5 mph16.9 kmh 30.37 in1028.4 mb - 0.00 in0.0 mm 0.00 in0.0 mm
02:22 AM 35.2°F1.8°C 31.8°F-0.1°C 87% 7.2 mph N11.6 kmh N 5.4 mph8.7 kmh 30.37 in1028.4 mb - 0.00 in0.0 mm 0.00 in0.0 mm
02:17 AM 35.2°F1.8°C 31.5°F-0.3°C 86% 11.6 mph NNW18.7 kmh NNW 13.9 mph22.4 kmh 30.37 in1028.4 mb - 0.00 in0.0 mm 0.00 in0.0 mm
02:12 AM 35.2°F1.8°C 31.5°F-0.3°C 86% 12.1 mph NW19.5 kmh NW 7.4 mph11.9 kmh 30.36 in1028.1 mb - 0.00 in0.0 mm 0.00 in0.0 mm
02:07 AM 35.2°F1.8°C 31.5°F-0.3°C 86% 10.5 mph NW16.9 kmh NW 10.5 mph16.9 kmh 30.36 in1028.1 mb - 0.00 in0.0 mm 0.00 in0.0 mm
02:02 AM 35.4°F1.9°C 31.6°F-0.2°C 86% 13.6 mph N21.9 kmh N 13.9 mph22.4 kmh 30.35 in1027.8 mb - 0.00 in0.0 mm 0.00 in0.0 mm
01:57 AM 35.4°F1.9°C 31.6°F-0.2°C 86% 13.0 mph 20.9 kmh 14.8 mph23.8 kmh 30.35 in1027.8 mb - 0.00 in0.0 mm 0.00 in0.0 mm
01:52 AM 35.6°F2.0°C 31.5°F-0.3°C 85% 9.4 mph 15.1 kmh 4.3 mph6.9 kmh 30.34 in1027.4 mb - 0.00 in0.0 mm 0.00 in0.0 mm
01:47 AM 35.6°F2.0°C 31.5°F-0.3°C 85% 9.6 mph NE15.4 kmh NE 9.6 mph15.4 kmh 30.35 in1027.8 mb - 0.00 in0.0 mm 0.00 in0.0 mm
01:42 AM 35.8°F2.1°C 31.6°F-0.2°C 85% 14.1 mph N22.7 kmh N 18.1 mph29.1 kmh 30.35 in1027.8 mb - 0.00 in0.0 mm 0.00 in0.0 mm
01:37 AM 35.8°F2.1°C 31.6°F-0.2°C 85% 11.2 mph NNW18.0 kmh NNW 10.5 mph16.9 kmh 30.35 in1027.8 mb - 0.00 in0.0 mm 0.00 in0.0 mm
01:32 AM 35.8°F2.1°C 31.6°F-0.2°C 85% 9.8 mph N15.8 kmh N 8.5 mph13.7 kmh 30.35 in1027.8 mb - 0.00 in0.0 mm 0.00 in0.0 mm
01:27 AM 35.8°F2.1°C 31.5°F-0.3°C 84% 11.2 mph N18.0 kmh N 19.0 mph30.6 kmh 30.35 in1027.8 mb - 0.00 in0.0 mm 0.00 in0.0 mm
01:22 AM 36.0°F2.2°C 31.6°F-0.2°C 84% 14.3 mph NNW23.0 kmh NNW 10.5 mph16.9 kmh 30.35 in1027.8 mb - 0.00 in0.0 mm 0.00 in0.0 mm
01:17 AM 36.0°F2.2°C 31.6°F-0.2°C 84% 14.8 mph NNW23.8 kmh NNW 7.4 mph11.9 kmh 30.35 in1027.8 mb - 0.00 in0.0 mm 0.00 in0.0 mm
01:12 AM 36.0°F2.2°C 31.8°F-0.1°C 85% 7.6 mph N12.2 kmh N 8.5 mph13.7 kmh 30.34 in1027.4 mb - 0.00 in0.0 mm 0.00 in0.0 mm
01:07 AM 36.0°F2.2°C 31.8°F-0.1°C 85% 16.6 mph 26.7 kmh 21.3 mph34.3 kmh 30.34 in1027.4 mb - 0.00 in0.0 mm 0.00 in0.0 mm
01:02 AM 36.0°F2.2°C 31.8°F-0.1°C 85% 13.4 mph N21.6 kmh N 14.8 mph23.8 kmh 30.34 in1027.4 mb - 0.00 in0.0 mm 0.00 in0.0 mm
12:57 AM 36.1°F2.3°C 32.0°F0.0°C 85% 12.1 mph NNW19.5 kmh NNW 9.6 mph15.4 kmh 30.34 in1027.4 mb - 0.00 in0.0 mm 0.00 in0.0 mm
12:52 AM 36.1°F2.3°C 32.0°F0.0°C 85% 12.3 mph N19.8 kmh N 11.6 mph18.7 kmh 30.34 in1027.4 mb - 0.00 in0.0 mm 0.00 in0.0 mm
12:47 AM 36.1°F2.3°C 32.0°F0.0°C 85% 17.0 mph 27.4 kmh 10.5 mph16.9 kmh 30.33 in1027.1 mb - 0.00 in0.0 mm 0.00 in0.0 mm
12:42 AM 36.3°F2.4°C 32.2°F0.1°C 85% 16.3 mph N26.2 kmh N 23.3 mph37.5 kmh 30.33 in1027.1 mb - 0.00 in0.0 mm 0.00 in0.0 mm
12:37 AM 36.5°F2.5°C 32.7°F0.4°C 86% 13.0 mph NNW20.9 kmh NNW 14.8 mph23.8 kmh 30.33 in1027.1 mb - 0.00 in0.0 mm 0.00 in0.0 mm
12:32 AM 36.9°F2.7°C 33.4°F0.8°C 87% 8.9 mph NNW14.3 kmh NNW 12.8 mph20.6 kmh 30.33 in1027.1 mb - 0.00 in0.0 mm 0.00 in0.0 mm
12:27 AM 36.9°F2.7°C 33.4°F0.8°C 87% 12.5 mph 20.1 kmh 15.9 mph25.6 kmh 30.32 in1026.8 mb - 0.00 in0.0 mm 0.00 in0.0 mm
12:22 AM 37.0°F2.8°C 34.2°F1.2°C 89% 13.2 mph NNW21.2 kmh NNW 8.5 mph13.7 kmh 30.33 in1027.1 mb - 0.00 in0.0 mm 0.00 in0.0 mm
12:17 AM 37.2°F2.9°C 34.3°F1.3°C 89% 11.9 mph NNW19.2 kmh NNW 12.8 mph20.6 kmh 30.32 in1026.8 mb - 0.00 in0.0 mm 0.00 in0.0 mm
12:12 AM 37.2°F2.9°C 34.3°F1.3°C 89% 9.4 mph N15.1 kmh N 6.3 mph10.1 kmh 30.32 in1026.8 mb - 0.00 in0.0 mm 0.00 in0.0 mm
12:07 AM 37.2°F2.9°C 34.3°F1.3°C 89% 9.6 mph NNW15.4 kmh NNW 7.4 mph11.9 kmh 30.32 in1026.8 mb - 0.00 in0.0 mm 0.00 in0.0 mm
12:02 AM 37.6°F3.1°C 34.7°F1.5°C 89% 9.4 mph NW15.1 kmh NW 8.5 mph13.7 kmh 30.32 in1026.8 mb - 0.00 in0.0 mm 0.05 in1.3 mm